sensor_id;sensor_type;location;lat;lon;timestamp;pressure;altitude;pressure_sealevel;temperature;humidity
76827;BME280;65788;52.284;20.890;2023-09-30T00:01:47;100571.70;;;23.20;50.07
76827;BME280;65788;52.284;20.890;2023-09-30T00:04:14;100571.81;;;23.19;50.14
76827;BME280;65788;52.284;20.890;2023-09-30T00:06:41;100571.42;;;23.19;50.13
76827;BME280;65788;52.284;20.890;2023-09-30T00:09:08;100567.98;;;23.17;50.21
76827;BME280;65788;52.284;20.890;2023-09-30T00:11:37;100569.60;;;23.15;50.26
76827;BME280;65788;52.284;20.890;2023-09-30T00:14:05;100569.70;;;23.15;50.26
76827;BME280;65788;52.284;20.890;2023-09-30T00:16:33;100568.27;;;23.14;50.28
76827;BME280;65788;52.284;20.890;2023-09-30T00:19:01;100566.92;;;23.16;50.24
76827;BME280;65788;52.284;20.890;2023-09-30T00:21:29;100569.37;;;23.15;50.21
76827;BME280;65788;52.284;20.890;2023-09-30T00:23:56;100572.83;;;23.14;50.26
76827;BME280;65788;52.284;20.890;2023-09-30T00:26:23;100568.97;;;23.13;50.28
76827;BME280;65788;52.284;20.890;2023-09-30T00:28:50;100567.83;;;23.12;50.29
76827;BME280;65788;52.284;20.890;2023-09-30T00:31:17;100565.57;;;23.11;50.31
76827;BME280;65788;52.284;20.890;2023-09-30T00:33:44;100564.38;;;23.10;50.34
76827;BME280;65788;52.284;20.890;2023-09-30T00:36:11;100563.49;;;23.09;50.34
76827;BME280;65788;52.284;20.890;2023-09-30T00:38:39;100562.02;;;23.07;50.36
76827;BME280;65788;52.284;20.890;2023-09-30T00:41:07;100562.92;;;23.08;50.37
76827;BME280;65788;52.284;20.890;2023-09-30T00:43:34;100562.76;;;23.08;50.33
76827;BME280;65788;52.284;20.890;2023-09-30T00:46:37;100563.77;;;23.06;50.34
76827;BME280;65788;52.284;20.890;2023-09-30T00:49:04;100566.48;;;23.03;50.41
76827;BME280;65788;52.284;20.890;2023-09-30T00:51:32;100563.45;;;23.04;50.36
76827;BME280;65788;52.284;20.890;2023-09-30T00:54:01;100562.22;;;23.04;50.36
76827;BME280;65788;52.284;20.890;2023-09-30T00:56:29;100563.71;;;23.04;50.34
76827;BME280;65788;52.284;20.890;2023-09-30T00:58:57;100563.86;;;23.03;50.34
76827;BME280;65788;52.284;20.890;2023-09-30T01:01:25;100556.32;;;23.02;50.33
76827;BME280;65788;52.284;20.890;2023-09-30T01:03:52;100558.55;;;23.00;50.37
76827;BME280;65788;52.284;20.890;2023-09-30T01:06:22;100569.91;;;22.99;50.38
76827;BME280;65788;52.284;20.890;2023-09-30T01:08:49;100571.55;;;22.98;50.39
76827;BME280;65788;52.284;20.890;2023-09-30T01:11:16;100573.94;;;22.97;50.39
76827;BME280;65788;52.284;20.890;2023-09-30T01:13:46;100578.45;;;22.97;50.40
76827;BME280;65788;52.284;20.890;2023-09-30T01:16:14;100581.56;;;22.96;50.39
76827;BME280;65788;52.284;20.890;2023-09-30T01:18:41;100577.09;;;22.93;50.46
76827;BME280;65788;52.284;20.890;2023-09-30T01:21:09;100569.45;;;22.94;50.43
76827;BME280;65788;52.284;20.890;2023-09-30T01:23:37;100563.68;;;22.92;50.46
76827;BME280;65788;52.284;20.890;2023-09-30T01:26:08;100564.04;;;22.89;50.51
76827;BME280;65788;52.284;20.890;2023-09-30T01:28:36;100562.67;;;22.88;50.51
76827;BME280;65788;52.284;20.890;2023-09-30T01:31:04;100563.08;;;22.86;50.55
76827;BME280;65788;52.284;20.890;2023-09-30T01:33:32;100560.65;;;22.86;50.59
76827;BME280;65788;52.284;20.890;2023-09-30T01:36:02;100561.41;;;22.84;50.60
76827;BME280;65788;52.284;20.890;2023-09-30T01:38:30;100560.08;;;22.85;50.60
76827;BME280;65788;52.284;20.890;2023-09-30T01:40:57;100553.52;;;22.84;50.62
76827;BME280;65788;52.284;20.890;2023-09-30T01:43:24;100552.38;;;22.84;50.61
76827;BME280;65788;52.284;20.890;2023-09-30T01:45:51;100551.10;;;22.82;50.63
76827;BME280;65788;52.284;20.890;2023-09-30T01:48:19;100552.86;;;22.81;50.67
76827;BME280;65788;52.284;20.890;2023-09-30T01:50:46;100547.58;;;22.81;50.64
76827;BME280;65788;52.284;20.890;2023-09-30T01:53:14;100547.86;;;22.80;50.67
76827;BME280;65788;52.284;20.890;2023-09-30T01:55:41;100544.70;;;22.80;50.66
76827;BME280;65788;52.284;20.890;2023-09-30T01:58:09;100550.77;;;22.78;50.72
76827;BME280;65788;52.284;20.890;2023-09-30T02:00:38;100548.02;;;22.80;50.71
76827;BME280;65788;52.284;20.890;2023-09-30T02:03:05;100542.09;;;22.77;50.77
76827;BME280;65788;52.284;20.890;2023-09-30T02:05:32;100546.08;;;22.78;50.78
76827;BME280;65788;52.284;20.890;2023-09-30T02:07:59;100545.02;;;22.78;50.80
76827;BME280;65788;52.284;20.890;2023-09-30T02:10:26;100541.93;;;22.77;50.79
76827;BME280;65788;52.284;20.890;2023-09-30T02:12:53;100538.48;;;22.78;50.79
76827;BME280;65788;52.284;20.890;2023-09-30T02:15:20;100540.64;;;22.74;50.85
76827;BME280;65788;52.284;20.890;2023-09-30T02:17:47;100538.70;;;22.75;50.84
76827;BME280;65788;52.284;20.890;2023-09-30T02:20:16;100533.92;;;22.75;50.82
76827;BME280;65788;52.284;20.890;2023-09-30T02:22:46;100539.02;;;22.74;50.86
76827;BME280;65788;52.284;20.890;2023-09-30T02:25:14;100537.80;;;22.72;50.90
76827;BME280;65788;52.284;20.890;2023-09-30T02:27:42;100540.27;;;22.73;50.91
76827;BME280;65788;52.284;20.890;2023-09-30T02:30:11;100537.27;;;22.73;50.88
76827;BME280;65788;52.284;20.890;2023-09-30T02:32:39;100540.91;;;22.74;50.88
76827;BME280;65788;52.284;20.890;2023-09-30T02:35:08;100541.62;;;22.73;50.90
76827;BME280;65788;52.284;20.890;2023-09-30T02:37:38;100541.34;;;22.71;50.95
76827;BME280;65788;52.284;20.890;2023-09-30T02:40:08;100540.08;;;22.72;50.93
76827;BME280;65788;52.284;20.890;2023-09-30T02:42:38;100545.44;;;22.72;50.92
76827;BME280;65788;52.284;20.890;2023-09-30T02:45:10;100548.20;;;22.71;50.97
76827;BME280;65788;52.284;20.890;2023-09-30T02:47:38;100545.05;;;22.72;50.93
76827;BME280;65788;52.284;20.890;2023-09-30T02:50:07;100541.92;;;22.70;50.97
76827;BME280;65788;52.284;20.890;2023-09-30T02:52:40;100543.08;;;22.71;50.99
76827;BME280;65788;52.284;20.890;2023-09-30T02:55:11;100542.62;;;22.70;50.99
76827;BME280;65788;52.284;20.890;2023-09-30T02:57:39;100540.81;;;22.69;50.98
76827;BME280;65788;52.284;20.890;2023-09-30T03:00:08;100538.70;;;22.68;51.04
76827;BME280;65788;52.284;20.890;2023-09-30T03:02:54;100536.52;;;22.67;51.03
76827;BME280;65788;52.284;20.890;2023-09-30T03:05:22;100538.41;;;22.67;51.07
76827;BME280;65788;52.284;20.890;2023-09-30T03:07:50;100537.27;;;22.68;51.02
76827;BME280;65788;52.284;20.890;2023-09-30T03:10:20;100533.67;;;22.65;51.07
76827;BME280;65788;52.284;20.890;2023-09-30T03:12:50;100533.02;;;22.63;51.14
76827;BME280;65788;52.284;20.890;2023-09-30T03:15:18;100531.88;;;22.65;51.13
76827;BME280;65788;52.284;20.890;2023-09-30T03:17:45;100533.22;;;22.65;51.18
76827;BME280;65788;52.284;20.890;2023-09-30T03:20:13;100530.02;;;22.66;51.19
76827;BME280;65788;52.284;20.890;2023-09-30T03:22:42;100524.88;;;22.66;51.22
76827;BME280;65788;52.284;20.890;2023-09-30T03:25:10;100526.30;;;22.65;51.29
76827;BME280;65788;52.284;20.890;2023-09-30T03:27:40;100526.52;;;22.65;51.30
76827;BME280;65788;52.284;20.890;2023-09-30T03:30:08;100526.06;;;22.64;51.33
76827;BME280;65788;52.284;20.890;2023-09-30T03:32:36;100523.85;;;22.63;51.40
76827;BME280;65788;52.284;20.890;2023-09-30T03:35:07;100515.83;;;22.61;51.44
76827;BME280;65788;52.284;20.890;2023-09-30T03:37:37;100512.38;;;22.61;51.45
76827;BME280;65788;52.284;20.890;2023-09-30T03:40:05;100514.98;;;22.62;51.43
76827;BME280;65788;52.284;20.890;2023-09-30T03:42:42;100518.98;;;22.62;51.47
76827;BME280;65788;52.284;20.890;2023-09-30T03:45:11;100519.64;;;22.64;51.56
76827;BME280;65788;52.284;20.890;2023-09-30T03:47:40;100517.65;;;22.62;51.67
76827;BME280;65788;52.284;20.890;2023-09-30T03:50:09;100516.23;;;22.62;51.68
76827;BME280;65788;52.284;20.890;2023-09-30T03:52:42;100518.98;;;22.62;51.68
76827;BME280;65788;52.284;20.890;2023-09-30T03:55:11;100523.30;;;22.63;51.67
76827;BME280;65788;52.284;20.890;2023-09-30T03:57:39;100522.30;;;22.61;51.70
76827;BME280;65788;52.284;20.890;2023-09-30T04:00:09;100524.31;;;22.61;51.73
76827;BME280;65788;52.284;20.890;2023-09-30T04:02:42;100526.77;;;22.61;51.71
76827;BME280;65788;52.284;20.890;2023-09-30T04:05:13;100527.25;;;22.60;51.73
76827;BME280;65788;52.284;20.890;2023-09-30T04:07:43;100527.61;;;22.62;51.71
76827;BME280;65788;52.284;20.890;2023-09-30T04:10:10;100524.41;;;22.60;51.73
76827;BME280;65788;52.284;20.890;2023-09-30T04:12:37;100522.91;;;22.61;51.72
76827;BME280;65788;52.284;20.890;2023-09-30T04:15:04;100522.76;;;22.59;51.77
76827;BME280;65788;52.284;20.890;2023-09-30T04:17:31;100520.96;;;22.59;51.78
76827;BME280;65788;52.284;20.890;2023-09-30T04:20:00;100521.06;;;22.58;51.81
76827;BME280;65788;52.284;20.890;2023-09-30T04:22:28;100520.63;;;22.56;51.92
76827;BME280;65788;52.284;20.890;2023-09-30T04:24:56;100519.27;;;22.55;51.92
76827;BME280;65788;52.284;20.890;2023-09-30T04:27:23;100519.92;;;22.55;51.92
76827;BME280;65788;52.284;20.890;2023-09-30T04:29:53;100516.67;;;22.54;51.97
76827;BME280;65788;52.284;20.890;2023-09-30T04:32:20;100520.63;;;22.56;51.90
76827;BME280;65788;52.284;20.890;2023-09-30T04:34:46;100520.35;;;22.54;51.93
76827;BME280;65788;52.284;20.890;2023-09-30T04:37:14;100521.33;;;22.55;51.92
76827;BME280;65788;52.284;20.890;2023-09-30T04:39:42;100515.05;;;22.56;51.89
76827;BME280;65788;52.284;20.890;2023-09-30T04:42:10;100512.71;;;22.54;51.89
76827;BME280;65788;52.284;20.890;2023-09-30T04:44:38;100513.76;;;22.56;51.85
76827;BME280;65788;52.284;20.890;2023-09-30T04:47:05;100514.90;;;22.55;51.81
76827;BME280;65788;52.284;20.890;2023-09-30T04:49:33;100514.45;;;22.55;51.84
76827;BME280;65788;52.284;20.890;2023-09-30T04:52:00;100514.13;;;22.55;51.82
76827;BME280;65788;52.284;20.890;2023-09-30T04:54:27;100510.41;;;22.56;51.77
76827;BME280;65788;52.284;20.890;2023-09-30T04:56:58;100507.67;;;22.53;51.81
76827;BME280;65788;52.284;20.890;2023-09-30T04:59:25;100509.06;;;22.53;51.84
76827;BME280;65788;52.284;20.890;2023-09-30T05:01:52;100508.27;;;22.53;51.81
76827;BME280;65788;52.284;20.890;2023-09-30T05:04:22;100506.23;;;22.53;51.79
76827;BME280;65788;52.284;20.890;2023-09-30T05:06:50;100505.27;;;22.53;51.76
76827;BME280;65788;52.284;20.890;2023-09-30T05:09:17;100501.77;;;22.52;51.80
76827;BME280;65788;52.284;20.890;2023-09-30T05:11:44;100507.63;;;22.51;51.78
76827;BME280;65788;52.284;20.890;2023-09-30T05:14:14;100511.61;;;22.51;51.82
76827;BME280;65788;52.284;20.890;2023-09-30T05:16:41;100513.04;;;22.50;51.78
76827;BME280;65788;52.284;20.890;2023-09-30T05:19:10;100514.50;;;22.52;51.76
76827;BME280;65788;52.284;20.890;2023-09-30T05:21:38;100519.98;;;22.51;51.78
76827;BME280;65788;52.284;20.890;2023-09-30T05:24:06;100518.67;;;22.52;51.73
76827;BME280;65788;52.284;20.890;2023-09-30T05:26:34;100520.02;;;22.54;51.67
76827;BME280;65788;52.284;20.890;2023-09-30T05:29:01;100521.70;;;22.50;51.77
76827;BME280;65788;52.284;20.890;2023-09-30T05:31:29;100523.77;;;22.49;51.83
76827;BME280;65788;52.284;20.890;2023-09-30T05:33:56;100527.98;;;22.49;51.82
76827;BME280;65788;52.284;20.890;2023-09-30T05:36:25;100528.41;;;22.53;51.72
76827;BME280;65788;52.284;20.890;2023-09-30T05:38:52;100532.94;;;22.51;51.79
76827;BME280;65788;52.284;20.890;2023-09-30T05:41:19;100539.40;;;22.47;51.91
76827;BME280;65788;52.284;20.890;2023-09-30T05:43:47;100544.70;;;22.47;51.92
76827;BME280;65788;52.284;20.890;2023-09-30T05:46:15;100547.31;;;22.48;51.89
76827;BME280;65788;52.284;20.890;2023-09-30T05:48:42;100549.29;;;22.47;51.92
76827;BME280;65788;52.284;20.890;2023-09-30T05:51:09;100558.95;;;22.44;52.07
76827;BME280;65788;52.284;20.890;2023-09-30T05:53:36;100561.80;;;22.41;52.21
76827;BME280;65788;52.284;20.890;2023-09-30T05:56:06;100561.94;;;22.40;52.27
76827;BME280;65788;52.284;20.890;2023-09-30T05:58:33;100567.05;;;22.39;52.29
76827;BME280;65788;52.284;20.890;2023-09-30T06:01:00;100563.31;;;22.32;52.56
76827;BME280;65788;52.284;20.890;2023-09-30T06:03:28;100564.84;;;22.34;52.41
76827;BME280;65788;52.284;20.890;2023-09-30T06:05:56;100575.27;;;22.34;52.44
76827;BME280;65788;52.284;20.890;2023-09-30T06:08:23;100574.20;;;22.33;52.49
76827;BME280;65788;52.284;20.890;2023-09-30T06:10:50;100581.55;;;22.32;52.47
76827;BME280;65788;52.284;20.890;2023-09-30T06:13:17;100583.11;;;22.28;52.61
76827;BME280;65788;52.284;20.890;2023-09-30T06:15:44;100581.32;;;22.30;52.49
76827;BME280;65788;52.284;20.890;2023-09-30T06:18:13;100587.35;;;22.28;52.56
76827;BME280;65788;52.284;20.890;2023-09-30T06:20:41;100587.02;;;22.26;52.74
76827;BME280;65788;52.284;20.890;2023-09-30T06:23:09;100590.72;;;22.25;52.71
76827;BME280;65788;52.284;20.890;2023-09-30T06:25:36;100586.25;;;22.24;52.77
76827;BME280;65788;52.284;20.890;2023-09-30T06:28:03;100584.73;;;22.21;52.89
76827;BME280;65788;52.284;20.890;2023-09-30T06:30:33;100585.67;;;22.23;52.78
76827;BME280;65788;52.284;20.890;2023-09-30T06:33:03;100580.79;;;22.26;52.63
76827;BME280;65788;52.284;20.890;2023-09-30T06:35:31;100581.07;;;22.27;52.55
76827;BME280;65788;52.284;20.890;2023-09-30T06:38:04;100583.02;;;22.31;52.30
76827;BME280;65788;52.284;20.890;2023-09-30T06:40:33;100587.73;;;22.30;52.34
76827;BME280;65788;52.284;20.890;2023-09-30T06:43:00;100594.23;;;22.31;52.38
76827;BME280;65788;52.284;20.890;2023-09-30T06:45:27;100597.95;;;22.31;52.45
76827;BME280;65788;52.284;20.890;2023-09-30T06:47:54;100603.36;;;22.34;52.35
76827;BME280;65788;52.284;20.890;2023-09-30T06:50:21;100604.60;;;22.31;52.40
76827;BME280;65788;52.284;20.890;2023-09-30T06:52:48;100603.41;;;22.32;52.33
76827;BME280;65788;52.284;20.890;2023-09-30T06:55:16;100601.91;;;22.33;52.35
76827;BME280;65788;52.284;20.890;2023-09-30T06:57:43;100607.52;;;22.33;52.31
76827;BME280;65788;52.284;20.890;2023-09-30T07:00:12;100610.50;;;22.29;52.51
76827;BME280;65788;52.284;20.890;2023-09-30T07:02:40;100613.57;;;22.28;52.62
76827;BME280;65788;52.284;20.890;2023-09-30T07:05:13;100618.25;;;22.28;52.58
76827;BME280;65788;52.284;20.890;2023-09-30T07:07:41;100620.15;;;22.31;52.51
76827;BME280;65788;52.284;20.890;2023-09-30T07:10:13;100622.22;;;22.31;52.46
76827;BME280;65788;52.284;20.890;2023-09-30T07:12:40;100621.91;;;22.28;52.54
76827;BME280;65788;52.284;20.890;2023-09-30T07:15:08;100627.26;;;22.27;52.67
76827;BME280;65788;52.284;20.890;2023-09-30T07:17:35;100628.35;;;22.26;52.70
76827;BME280;65788;52.284;20.890;2023-09-30T07:20:04;100625.79;;;22.25;52.84
76827;BME280;65788;52.284;20.890;2023-09-30T07:22:35;100626.79;;;22.27;52.78
76827;BME280;65788;52.284;20.890;2023-09-30T07:25:04;100622.17;;;22.23;52.96
76827;BME280;65788;52.284;20.890;2023-09-30T07:27:31;100629.10;;;22.24;53.08
76827;BME280;65788;52.284;20.890;2023-09-30T07:29:59;100633.49;;;22.22;52.95
76827;BME280;65788;52.284;20.890;2023-09-30T07:32:26;100636.75;;;22.22;52.96
76827;BME280;65788;52.284;20.890;2023-09-30T07:34:54;100639.83;;;22.20;53.09
76827;BME280;65788;52.284;20.890;2023-09-30T07:37:21;100637.48;;;22.21;53.13
76827;BME280;65788;52.284;20.890;2023-09-30T07:39:48;100639.16;;;22.25;52.86
76827;BME280;65788;52.284;20.890;2023-09-30T07:42:16;100640.36;;;22.26;52.97
76827;BME280;65788;52.284;20.890;2023-09-30T07:44:43;100637.30;;;22.28;52.95
76827;BME280;65788;52.284;20.890;2023-09-30T07:47:11;100639.42;;;22.30;54.08
76827;BME280;65788;52.284;20.890;2023-09-30T07:49:38;100637.48;;;22.30;54.08
76827;BME280;65788;52.284;20.890;2023-09-30T07:52:05;100639.67;;;22.32;53.97
76827;BME280;65788;52.284;20.890;2023-09-30T07:54:32;100637.06;;;22.35;53.97
76827;BME280;65788;52.284;20.890;2023-09-30T07:56:59;100638.55;;;22.36;53.87
76827;BME280;65788;52.284;20.890;2023-09-30T07:59:27;100634.98;;;22.33;53.94
76827;BME280;65788;52.284;20.890;2023-09-30T08:01:54;100636.05;;;22.33;54.05
76827;BME280;65788;52.284;20.890;2023-09-30T08:04:23;100642.80;;;22.36;53.90
76827;BME280;65788;52.284;20.890;2023-09-30T08:06:51;100645.05;;;22.34;54.10
76827;BME280;65788;52.284;20.890;2023-09-30T08:09:18;100642.96;;;22.29;54.24
76827;BME280;65788;52.284;20.890;2023-09-30T08:11:45;100643.10;;;22.30;54.27
76827;BME280;65788;52.284;20.890;2023-09-30T08:14:12;100643.19;;;22.29;54.27
76827;BME280;65788;52.284;20.890;2023-09-30T08:16:39;100650.91;;;22.28;54.45
76827;BME280;65788;52.284;20.890;2023-09-30T08:19:07;100651.56;;;22.25;54.56
76827;BME280;65788;52.284;20.890;2023-09-30T08:21:34;100651.52;;;22.28;54.21
76827;BME280;65788;52.284;20.890;2023-09-30T08:24:02;100647.96;;;22.27;54.52
76827;BME280;65788;52.284;20.890;2023-09-30T08:26:29;100646.29;;;22.26;54.56
76827;BME280;65788;52.284;20.890;2023-09-30T08:28:57;100648.98;;;22.31;53.98
76827;BME280;65788;52.284;20.890;2023-09-30T08:31:24;100651.68;;;22.35;53.83
76827;BME280;65788;52.284;20.890;2023-09-30T08:33:50;100646.23;;;22.32;54.05
76827;BME280;65788;52.284;20.890;2023-09-30T08:36:18;100647.98;;;22.29;54.24
76827;BME280;65788;52.284;20.890;2023-09-30T08:38:45;100649.77;;;22.31;54.19
76827;BME280;65788;52.284;20.890;2023-09-30T08:41:27;100654.60;;;22.29;54.52
76827;BME280;65788;52.284;20.890;2023-09-30T08:43:59;100656.83;;;22.26;54.78
76827;BME280;65788;52.284;20.890;2023-09-30T08:46:30;100657.73;;;22.27;54.73
76827;BME280;65788;52.284;20.890;2023-09-30T08:49:00;100652.35;;;22.26;54.78
76827;BME280;65788;52.284;20.890;2023-09-30T08:51:29;100661.40;;;22.26;54.79
76827;BME280;65788;52.284;20.890;2023-09-30T08:53:57;100658.19;;;22.23;54.93
76827;BME280;65788;52.284;20.890;2023-09-30T08:56:29;100661.06;;;22.20;54.94
76827;BME280;65788;52.284;20.890;2023-09-30T08:59:00;100668.48;;;22.29;54.45
76827;BME280;65788;52.284;20.890;2023-09-30T09:01:29;100671.79;;;22.27;54.73
76827;BME280;65788;52.284;20.890;2023-09-30T09:03:57;100670.17;;;22.25;54.73
76827;BME280;65788;52.284;20.890;2023-09-30T09:06:25;100675.16;;;22.20;54.97
76827;BME280;65788;52.284;20.890;2023-09-30T09:08:52;100682.55;;;22.19;54.98
76827;BME280;65788;52.284;20.890;2023-09-30T09:11:23;100681.97;;;22.18;55.06
76827;BME280;65788;52.284;20.890;2023-09-30T09:13:51;100687.38;;;22.17;55.08
76827;BME280;65788;52.284;20.890;2023-09-30T09:16:25;100689.13;;;22.19;54.88
76827;BME280;65788;52.284;20.890;2023-09-30T09:18:52;100689.65;;;22.18;54.94
76827;BME280;65788;52.284;20.890;2023-09-30T09:21:21;100690.97;;;22.14;55.21
76827;BME280;65788;52.284;20.890;2023-09-30T09:23:53;100689.31;;;22.18;54.84
76827;BME280;65788;52.284;20.890;2023-09-30T09:26:27;100690.63;;;22.12;55.35
76827;BME280;65788;52.284;20.890;2023-09-30T09:28:59;100692.23;;;22.13;55.13
76827;BME280;65788;52.284;20.890;2023-09-30T09:31:31;100689.23;;;22.17;54.95
76827;BME280;65788;52.284;20.890;2023-09-30T09:33:59;100687.84;;;22.15;55.00
76827;BME280;65788;52.284;20.890;2023-09-30T09:39:07;100692.90;;;22.13;55.13
76827;BME280;65788;52.284;20.890;2023-09-30T09:41:51;100697.55;;;22.10;55.20
76827;BME280;65788;52.284;20.890;2023-09-30T09:44:22;100700.86;;;22.13;55.20
76827;BME280;65788;52.284;20.890;2023-09-30T09:46:50;100705.38;;;22.08;55.32
76827;BME280;65788;52.284;20.890;2023-09-30T09:49:19;100708.85;;;22.08;55.37
76827;BME280;65788;52.284;20.890;2023-09-30T09:51:47;100707.10;;;22.11;55.29
76827;BME280;65788;52.284;20.890;2023-09-30T09:54:16;100717.21;;;22.11;55.31
76827;BME280;65788;52.284;20.890;2023-09-30T09:56:44;100715.52;;;22.13;55.92
76827;BME280;65788;52.284;20.890;2023-09-30T09:59:12;100717.95;;;22.04;56.98
76827;BME280;65788;52.284;20.890;2023-09-30T10:01:41;100721.83;;;22.09;56.68
76827;BME280;65788;52.284;20.890;2023-09-30T10:04:11;100721.82;;;22.18;56.23
76827;BME280;65788;52.284;20.890;2023-09-30T10:06:38;100726.05;;;22.22;56.45
76827;BME280;65788;52.284;20.890;2023-09-30T10:09:09;100727.66;;;22.14;57.06
76827;BME280;65788;52.284;20.890;2023-09-30T10:11:38;100729.08;;;22.16;56.66
76827;BME280;65788;52.284;20.890;2023-09-30T10:14:06;100737.14;;;22.20;56.48
76827;BME280;65788;52.284;20.890;2023-09-30T10:19:11;100748.15;;;22.24;55.99
76827;BME280;65788;52.284;20.890;2023-09-30T10:21:39;100756.80;;;22.21;56.26
76827;BME280;65788;52.284;20.890;2023-09-30T10:40:52;100797.99;;;21.99;56.94
76827;BME280;65788;52.284;20.890;2023-09-30T10:43:29;100806.52;;;22.07;56.49
76827;BME280;65788;52.284;20.890;2023-09-30T10:46:00;100807.92;;;22.14;56.18
76827;BME280;65788;52.284;20.890;2023-09-30T10:51:12;100812.98;;;22.10;56.29
76827;BME280;65788;52.284;20.890;2023-09-30T10:53:45;100812.15;;;22.11;56.20
76827;BME280;65788;52.284;20.890;2023-09-30T10:56:13;100817.59;;;22.09;56.32
76827;BME280;65788;52.284;20.890;2023-09-30T11:01:19;100828.91;;;22.02;56.51
76827;BME280;65788;52.284;20.890;2023-09-30T11:03:50;100836.51;;;22.06;56.35
76827;BME280;65788;52.284;20.890;2023-09-30T11:06:21;100834.36;;;22.11;56.10
76827;BME280;65788;52.284;20.890;2023-09-30T11:08:54;100845.12;;;22.02;56.44
76827;BME280;65788;52.284;20.890;2023-09-30T11:11:38;100848.61;;;21.94;56.72
76827;BME280;65788;52.284;20.890;2023-09-30T11:14:28;100851.81;;;21.85;56.94
76827;BME280;65788;52.284;20.890;2023-09-30T11:16:58;100856.48;;;21.86;56.85
76827;BME280;65788;52.284;20.890;2023-09-30T11:19:27;100853.08;;;21.96;56.42
76827;BME280;65788;52.284;20.890;2023-09-30T11:21:54;100855.01;;;22.01;56.21
76827;BME280;65788;52.284;20.890;2023-09-30T11:24:23;100857.44;;;22.07;55.97
76827;BME280;65788;52.284;20.890;2023-09-30T11:26:53;100863.14;;;22.11;55.76
76827;BME280;65788;52.284;20.890;2023-09-30T11:29:20;100861.17;;;22.14;55.58
76827;BME280;65788;52.284;20.890;2023-09-30T11:31:48;100857.48;;;22.14;55.60
76827;BME280;65788;52.284;20.890;2023-09-30T11:34:16;100853.40;;;22.20;55.39
76827;BME280;65788;52.284;20.890;2023-09-30T11:36:51;100851.01;;;22.22;55.30
76827;BME280;65788;52.284;20.890;2023-09-30T11:41:49;100860.34;;;22.21;55.48
76827;BME280;65788;52.284;20.890;2023-09-30T11:44:18;100859.96;;;22.20;55.58
76827;BME280;65788;52.284;20.890;2023-09-30T11:46:58;100863.58;;;22.18;55.76
76827;BME280;65788;52.284;20.890;2023-09-30T11:49:32;100863.74;;;22.05;56.29
76827;BME280;65788;52.284;20.890;2023-09-30T11:52:02;100868.72;;;22.10;56.23
76827;BME280;65788;52.284;20.890;2023-09-30T11:54:32;100865.92;;;22.12;56.05
76827;BME280;65788;52.284;20.890;2023-09-30T11:57:01;100861.85;;;22.11;56.11
76827;BME280;65788;52.284;20.890;2023-09-30T11:59:31;100856.11;;;22.15;55.95
76827;BME280;65788;52.284;20.890;2023-09-30T12:01:58;100848.77;;;22.20;55.74
76827;BME280;65788;52.284;20.890;2023-09-30T12:04:27;100843.05;;;22.16;55.89
76827;BME280;65788;52.284;20.890;2023-09-30T12:06:54;100848.33;;;22.13;55.96
76827;BME280;65788;52.284;20.890;2023-09-30T12:09:23;100847.38;;;22.12;55.95
76827;BME280;65788;52.284;20.890;2023-09-30T12:11:54;100854.63;;;22.13;55.88
76827;BME280;65788;52.284;20.890;2023-09-30T12:14:22;100852.67;;;22.17;55.84
76827;BME280;65788;52.284;20.890;2023-09-30T12:16:49;100851.33;;;22.20;55.69
76827;BME280;65788;52.284;20.890;2023-09-30T12:19:17;100850.64;;;22.21;55.65
76827;BME280;65788;52.284;20.890;2023-09-30T12:21:45;100847.23;;;22.24;55.44
76827;BME280;65788;52.284;20.890;2023-09-30T12:24:15;100846.49;;;22.28;55.30
76827;BME280;65788;52.284;20.890;2023-09-30T12:26:51;100852.79;;;22.28;55.30
76827;BME280;65788;52.284;20.890;2023-09-30T12:29:20;100851.23;;;22.30;55.18
76827;BME280;65788;52.284;20.890;2023-09-30T12:31:50;100853.65;;;22.30;55.16
76827;BME280;65788;52.284;20.890;2023-09-30T12:34:17;100854.05;;;22.32;55.09
76827;BME280;65788;52.284;20.890;2023-09-30T12:36:46;100853.56;;;22.31;55.04
76827;BME280;65788;52.284;20.890;2023-09-30T12:39:14;100847.18;;;22.28;55.17
76827;BME280;65788;52.284;20.890;2023-09-30T12:41:43;100844.41;;;22.30;55.12
76827;BME280;65788;52.284;20.890;2023-09-30T12:44:11;100841.98;;;22.34;55.02
76827;BME280;65788;52.284;20.890;2023-09-30T12:46:38;100845.58;;;22.37;54.91
76827;BME280;65788;52.284;20.890;2023-09-30T12:49:09;100850.92;;;22.37;54.83
76827;BME280;65788;52.284;20.890;2023-09-30T12:51:38;100851.48;;;22.37;54.80
76827;BME280;65788;52.284;20.890;2023-09-30T12:54:05;100850.23;;;22.38;54.75
76827;BME280;65788;52.284;20.890;2023-09-30T12:56:32;100846.70;;;22.39;54.74
76827;BME280;65788;52.284;20.890;2023-09-30T12:59:02;100850.66;;;22.43;54.63
76827;BME280;65788;52.284;20.890;2023-09-30T13:01:31;100852.62;;;22.43;54.49
76827;BME280;65788;52.284;20.890;2023-09-30T13:04:03;100847.10;;;22.45;54.46
76827;BME280;65788;52.284;20.890;2023-09-30T13:06:29;100843.45;;;22.46;54.42
76827;BME280;65788;52.284;20.890;2023-09-30T13:08:59;100844.34;;;22.46;54.28
76827;BME280;65788;52.284;20.890;2023-09-30T13:11:25;100842.50;;;22.46;54.10
76827;BME280;65788;52.284;20.890;2023-09-30T13:13:53;100837.48;;;22.51;53.64
76827;BME280;65788;52.284;20.890;2023-09-30T13:16:20;100842.58;;;22.50;53.61
76827;BME280;65788;52.284;20.890;2023-09-30T13:18:47;100837.45;;;22.49;53.66